createdAt,value
2023-04-18T00:00:04.088Z,102380.45
2023-04-18T00:00:34.508Z,102382.48
2023-04-18T00:01:04.925Z,102380.95
2023-04-18T00:01:35.348Z,102382.64
2023-04-18T00:02:05.837Z,102383.99
2023-04-18T00:02:36.480Z,102382.99
2023-04-18T00:03:07.209Z,102382.81
2023-04-18T00:03:38.164Z,102384.16
2023-04-18T00:04:08.917Z,102384.16
2023-04-18T00:04:39.457Z,102380.47
2023-04-18T00:05:09.938Z,102381.63
2023-04-18T00:05:40.334Z,102381.81
2023-04-18T00:06:10.738Z,102381.80
2023-04-18T00:06:41.214Z,102381.14
2023-04-18T00:07:11.604Z,102377.41
2023-04-18T00:07:42.022Z,102381.30
2023-04-18T00:08:12.447Z,102379.95
2023-04-18T00:08:42.875Z,102382.28
2023-04-18T00:09:13.386Z,102383.62
2023-04-18T00:09:43.840Z,102382.27
2023-04-18T00:10:14.229Z,102385.31
2023-04-18T00:10:44.628Z,102384.30
2023-04-18T00:11:15.051Z,102383.80
2023-04-18T00:11:45.480Z,102377.91
2023-04-18T00:12:15.891Z,102382.94
2023-04-18T00:12:46.312Z,102381.78
2023-04-18T00:13:16.733Z,102379.08
2023-04-18T00:13:47.179Z,102380.61
2023-04-18T00:14:17.600Z,102379.42
2023-04-18T00:14:48.026Z,102380.80
2023-04-18T00:15:18.456Z,102383.30
2023-04-18T00:15:48.867Z,102382.31
2023-04-18T00:16:19.313Z,102382.97
2023-04-18T00:16:49.739Z,102383.48
2023-04-18T00:17:20.123Z,102381.95
2023-04-18T00:17:50.564Z,102378.62
2023-04-18T00:18:20.967Z,102383.33
2023-04-18T00:18:51.401Z,102381.31
2023-04-18T00:19:21.825Z,102383.50
2023-04-18T00:19:52.247Z,102381.45
2023-04-18T00:20:22.677Z,102382.98
2023-04-18T00:20:53.094Z,102380.81
2023-04-18T00:21:23.547Z,102382.67
2023-04-18T00:21:53.937Z,102378.61
2023-04-18T00:22:24.360Z,102385.37
2023-04-18T00:22:54.793Z,102383.34
2023-04-18T00:23:25.228Z,102383.52
2023-04-18T00:23:55.640Z,102379.97
2023-04-18T00:24:26.074Z,102383.84
2023-04-18T00:24:56.496Z,102385.68
2023-04-18T00:25:26.939Z,102383.16
2023-04-18T00:25:57.379Z,102382.65
2023-04-18T00:26:27.768Z,102383.84
2023-04-18T00:26:58.190Z,102381.97
2023-04-18T00:27:28.623Z,102386.69
2023-04-18T00:27:59.047Z,102383.69
2023-04-18T00:28:29.470Z,102386.72
2023-04-18T00:28:59.902Z,102383.15
2023-04-18T00:29:30.350Z,102381.46
2023-04-18T00:30:00.774Z,102383.17
2023-04-18T00:30:31.209Z,102380.63
2023-04-18T00:31:01.688Z,102382.98
2023-04-18T00:31:32.103Z,102378.95
2023-04-18T00:32:02.481Z,102384.84
2023-04-18T00:32:32.922Z,102385.52
2023-04-18T00:33:03.359Z,102386.38
2023-04-18T00:33:33.748Z,102382.64
2023-04-18T00:34:04.163Z,102382.33
2023-04-18T00:34:34.615Z,102383.84
2023-04-18T00:35:05.031Z,102381.31
2023-04-18T00:35:35.447Z,102384.34
2023-04-18T00:36:05.862Z,102384.84
2023-04-18T00:36:36.286Z,102385.86
2023-04-18T00:37:06.721Z,102387.72
2023-04-18T00:37:37.159Z,102383.52
2023-04-18T00:38:07.572Z,102386.05
2023-04-18T00:38:38.000Z,102388.56
2023-04-18T00:39:08.427Z,102385.53
2023-04-18T00:39:38.860Z,102385.52
2023-04-18T00:40:09.270Z,102385.72
2023-04-18T00:40:39.718Z,102385.02
2023-04-18T00:41:10.146Z,102383.00
2023-04-18T00:41:40.560Z,102384.36
2023-04-18T00:42:10.966Z,102380.84
2023-04-18T00:42:41.430Z,102382.53
2023-04-18T00:43:11.807Z,102383.34
2023-04-18T00:43:42.244Z,102383.84
2023-04-18T00:44:12.948Z,102388.23
2023-04-18T00:44:43.490Z,102387.05
2023-04-18T00:45:13.913Z,102387.39
2023-04-18T00:45:44.347Z,102388.89
2023-04-18T00:46:14.788Z,102386.56
2023-04-18T00:46:45.183Z,102387.22
2023-04-18T00:47:15.606Z,102386.38
2023-04-18T00:47:46.090Z,102390.42
2023-04-18T00:48:16.512Z,102388.05
2023-04-18T00:48:46.929Z,102390.77
2023-04-18T00:49:17.353Z,102389.27
2023-04-18T00:49:47.784Z,102388.25
2023-04-18T00:50:18.209Z,102389.92
2023-04-18T00:50:48.629Z,102388.06
2023-04-18T00:51:19.052Z,102390.42
2023-04-18T00:51:49.470Z,102391.94
2023-04-18T00:52:19.893Z,102387.54
2023-04-18T00:52:50.312Z,102384.86
2023-04-18T00:53:20.737Z,102387.56
2023-04-18T00:53:51.161Z,102387.20
2023-04-18T00:54:21.590Z,102388.72
2023-04-18T00:54:52.034Z,102389.73
2023-04-18T00:55:22.446Z,102386.86
2023-04-18T00:55:52.930Z,102386.88
2023-04-18T00:56:23.298Z,102388.03
2023-04-18T00:56:53.724Z,102388.73
2023-04-18T00:57:24.147Z,102385.00
2023-04-18T00:57:54.574Z,102383.83
2023-04-18T00:58:24.994Z,102386.02
2023-04-18T00:58:55.409Z,102387.03
2023-04-18T00:59:25.828Z,102383.66
2023-04-18T00:59:56.268Z,102387.02
2023-04-18T01:00:26.683Z,102386.37
2023-04-18T01:00:57.109Z,102388.39
2023-04-18T01:01:27.601Z,102386.86
2023-04-18T01:01:58.130Z,102386.69
2023-04-18T01:02:28.628Z,102387.36
2023-04-18T01:02:59.114Z,102384.83
2023-04-18T01:03:29.886Z,102385.03
2023-04-18T01:04:00.601Z,102386.21
2023-04-18T01:04:31.282Z,102383.70
2023-04-18T01:05:01.755Z,102386.23
2023-04-18T01:05:32.175Z,102387.72
2023-04-18T01:06:02.603Z,102387.38
2023-04-18T01:06:33.029Z,102390.44
2023-04-18T01:07:03.450Z,102389.08
2023-04-18T01:07:33.867Z,102390.27
2023-04-18T01:08:04.293Z,102385.91
2023-04-18T01:08:34.717Z,102385.91
2023-04-18T01:09:05.143Z,102385.03
2023-04-18T01:09:35.567Z,102385.73
2023-04-18T01:10:06.002Z,102387.39
2023-04-18T01:10:36.419Z,102384.03
2023-04-18T01:11:06.860Z,102381.52
2023-04-18T01:11:37.263Z,102384.55
2023-04-18T01:12:07.703Z,102386.05
2023-04-18T01:12:38.101Z,102389.55
2023-04-18T01:13:08.525Z,102383.50
2023-04-18T01:13:38.943Z,102384.34
2023-04-18T01:14:09.379Z,102384.00
2023-04-18T01:14:39.806Z,102386.84
2023-04-18T01:15:10.233Z,102390.58
2023-04-18T01:15:40.693Z,102385.68
2023-04-18T01:16:11.159Z,102385.35
2023-04-18T01:16:41.560Z,102386.70
2023-04-18T01:17:11.977Z,102387.37
2023-04-18T01:17:42.470Z,102387.70
2023-04-18T01:18:12.913Z,102390.39
2023-04-18T01:18:43.343Z,102390.91
2023-04-18T01:19:13.757Z,102391.73
2023-04-18T01:19:44.180Z,102394.11
2023-04-18T01:20:14.619Z,102389.22
2023-04-18T01:20:45.054Z,102390.25
2023-04-18T01:21:15.472Z,102389.23
2023-04-18T01:21:45.891Z,102390.25
2023-04-18T01:22:16.314Z,102391.41
2023-04-18T01:22:46.737Z,102389.73
2023-04-18T01:23:17.167Z,102392.59
2023-04-18T01:23:47.583Z,102391.77
2023-04-18T01:24:18.018Z,102392.28
2023-04-18T01:24:48.431Z,102391.44
2023-04-18T01:25:18.868Z,102390.26
2023-04-18T01:25:49.326Z,102392.94
2023-04-18T01:26:19.866Z,102388.57
2023-04-18T01:26:50.236Z,102388.40
2023-04-18T01:27:20.650Z,102392.27
2023-04-18T01:27:51.075Z,102392.95
2023-04-18T01:28:21.511Z,102392.28
2023-04-18T01:28:51.922Z,102390.91
2023-04-18T01:29:22.341Z,102391.58
2023-04-18T01:29:52.775Z,102392.10
2023-04-18T01:30:23.210Z,102394.12
2023-04-18T01:30:53.684Z,102390.42
2023-04-18T01:31:24.192Z,102392.62
2023-04-18T01:31:54.594Z,102390.76
2023-04-18T01:32:25.028Z,102392.78
2023-04-18T01:32:55.509Z,102394.28
2023-04-18T01:33:25.906Z,102389.22
2023-04-18T01:33:56.321Z,102393.62
2023-04-18T01:34:26.755Z,102391.08
2023-04-18T01:34:57.174Z,102393.44
2023-04-18T01:35:27.600Z,102389.75
2023-04-18T01:35:58.022Z,102389.59
2023-04-18T01:36:28.442Z,102387.73
2023-04-18T01:36:58.870Z,102391.77
2023-04-18T01:37:29.311Z,102392.62
2023-04-18T01:37:59.732Z,102392.60
2023-04-18T01:38:30.162Z,102393.30
2023-04-18T01:39:00.583Z,102388.23
2023-04-18T01:39:31.002Z,102390.25
2023-04-18T01:40:01.428Z,102389.58
2023-04-18T01:40:31.864Z,102389.08
2023-04-18T01:41:02.301Z,102391.06
2023-04-18T01:41:33.096Z,102387.53
2023-04-18T01:42:03.547Z,102387.21
2023-04-18T01:42:33.969Z,102388.54
2023-04-18T01:43:04.397Z,102386.72
2023-04-18T01:43:34.817Z,102386.36
2023-04-18T01:44:05.243Z,102384.52
2023-04-18T01:44:35.659Z,102384.72
2023-04-18T01:45:06.077Z,102388.06
2023-04-18T01:45:36.514Z,102384.88
2023-04-18T01:46:07.050Z,102392.78
2023-04-18T01:46:37.554Z,102389.91
2023-04-18T01:47:07.952Z,102390.23
2023-04-18T01:47:38.425Z,102388.41
2023-04-18T01:48:08.826Z,102385.52
2023-04-18T01:48:39.249Z,102388.37
2023-04-18T01:49:09.677Z,102387.00
2023-04-18T01:49:40.091Z,102385.69
2023-04-18T01:50:10.536Z,102388.02
2023-04-18T01:50:40.948Z,102388.21
2023-04-18T01:51:11.373Z,102388.21
2023-04-18T01:51:41.802Z,102388.38
2023-04-18T01:52:12.226Z,102387.53
2023-04-18T01:52:42.664Z,102386.04
2023-04-18T01:53:13.074Z,102386.88
2023-04-18T01:53:43.495Z,102383.17
2023-04-18T01:54:14.048Z,102386.55
2023-04-18T01:54:44.539Z,102384.83
2023-04-18T01:55:14.964Z,102385.84
2023-04-18T01:55:45.400Z,102386.70
2023-04-18T01:56:15.834Z,102387.38
2023-04-18T01:56:46.271Z,102387.73
2023-04-18T01:57:16.670Z,102389.08
2023-04-18T01:57:47.087Z,102391.23
2023-04-18T01:58:17.508Z,102386.38
2023-04-18T01:58:47.931Z,102385.84
2023-04-18T01:59:18.350Z,102383.17
2023-04-18T01:59:48.773Z,102385.05
2023-04-18T02:00:19.210Z,102384.37
2023-04-18T02:00:49.687Z,102386.19
2023-04-18T02:01:20.152Z,102387.70
2023-04-18T02:01:50.622Z,102387.87
2023-04-18T02:02:21.133Z,102385.51
2023-04-18T02:02:51.693Z,102385.50
2023-04-18T02:03:22.345Z,102383.51
2023-04-18T02:03:53.178Z,102383.34
2023-04-18T02:04:23.877Z,102382.99
2023-04-18T02:04:54.298Z,102385.20
2023-04-18T02:05:24.720Z,102384.19
2023-04-18T02:05:55.152Z,102385.68
2023-04-18T02:06:25.572Z,102381.30
2023-04-18T02:06:56.013Z,102380.47
2023-04-18T02:07:26.413Z,102384.67
2023-04-18T02:07:56.843Z,102384.00
2023-04-18T02:08:27.268Z,102381.66
2023-04-18T02:08:57.694Z,102382.83
2023-04-18T02:09:28.116Z,102384.49
2023-04-18T02:09:58.546Z,102382.31
2023-04-18T02:10:28.968Z,102383.16
2023-04-18T02:10:59.407Z,102383.51
2023-04-18T02:11:29.835Z,102380.65
2023-04-18T02:12:00.274Z,102377.43
2023-04-18T02:12:30.672Z,102376.92
2023-04-18T02:13:01.094Z,102378.96
2023-04-18T02:13:31.525Z,102378.78
2023-04-18T02:14:01.943Z,102376.94
2023-04-18T02:14:32.361Z,102375.91
2023-04-18T02:15:02.781Z,102378.95
2023-04-18T02:15:33.208Z,102379.09
2023-04-18T02:16:03.652Z,102383.48
2023-04-18T02:16:34.165Z,102378.12
2023-04-18T02:17:04.551Z,102380.11
2023-04-18T02:17:35.057Z,102379.79
2023-04-18T02:18:05.451Z,102378.44
2023-04-18T02:18:35.851Z,102381.83
2023-04-18T02:19:06.272Z,102375.94
2023-04-18T02:19:36.698Z,102380.78
2023-04-18T02:20:07.129Z,102380.11
2023-04-18T02:20:37.549Z,102378.93
2023-04-18T02:21:08.001Z,102375.24
2023-04-18T02:21:38.432Z,102379.12
2023-04-18T02:22:08.852Z,102378.44
2023-04-18T02:22:39.272Z,102377.95
2023-04-18T02:23:09.704Z,102375.59
2023-04-18T02:23:40.112Z,102377.61
2023-04-18T02:24:10.569Z,102378.27
2023-04-18T02:24:41.037Z,102381.48
2023-04-18T02:25:11.469Z,102378.45
2023-04-18T02:25:41.891Z,102376.94
2023-04-18T02:26:12.333Z,102379.62
2023-04-18T02:26:42.752Z,102374.39
2023-04-18T02:27:13.208Z,102375.41
2023-04-18T02:27:43.604Z,102376.41
2023-04-18T02:28:14.031Z,102377.08
2023-04-18T02:28:44.444Z,102377.41
2023-04-18T02:29:14.884Z,102376.57
2023-04-18T02:29:45.288Z,102373.72
2023-04-18T02:30:15.709Z,102376.26
2023-04-18T02:30:46.136Z,102378.80
2023-04-18T02:31:16.595Z,102377.28
2023-04-18T02:31:47.044Z,102378.27
2023-04-18T02:32:17.434Z,102378.27
2023-04-18T02:32:47.930Z,102375.59
2023-04-18T02:33:18.314Z,102374.91
2023-04-18T02:33:48.733Z,102375.59
2023-04-18T02:34:19.154Z,102378.28
2023-04-18T02:34:49.581Z,102374.74
2023-04-18T02:35:20.000Z,102375.61
2023-04-18T02:35:50.422Z,102376.12
2023-04-18T02:36:20.854Z,102374.11
2023-04-18T02:36:51.283Z,102376.12
2023-04-18T02:37:21.754Z,102377.77
2023-04-18T02:37:52.169Z,102374.60
2023-04-18T02:38:22.593Z,102376.59
2023-04-18T02:38:53.029Z,102374.08
2023-04-18T02:39:23.444Z,102376.42
2023-04-18T02:39:53.880Z,102377.44
2023-04-18T02:40:24.378Z,102381.30
2023-04-18T02:40:54.810Z,102380.47
2023-04-18T02:41:25.256Z,102375.25
2023-04-18T02:41:55.684Z,102378.95
2023-04-18T02:42:26.217Z,102380.14
2023-04-18T02:42:56.580Z,102377.59
2023-04-18T02:43:27.003Z,102380.30
2023-04-18T02:43:57.425Z,102382.99
2023-04-18T02:44:27.859Z,102381.32
2023-04-18T02:44:58.270Z,102379.97
2023-04-18T02:45:28.699Z,102378.79
2023-04-18T02:45:59.146Z,102379.63
2023-04-18T02:46:29.705Z,102385.52
2023-04-18T02:47:00.093Z,102377.27
2023-04-18T02:47:35.407Z,102379.64
2023-04-18T02:48:05.877Z,102379.62
2023-04-18T02:48:36.479Z,102380.28
2023-04-18T02:49:06.951Z,102382.30
2023-04-18T02:49:37.368Z,102383.83
2023-04-18T02:50:07.791Z,102383.69
2023-04-18T02:50:38.214Z,102381.17
2023-04-18T02:51:08.640Z,102385.19
2023-04-18T02:51:39.094Z,102386.38
2023-04-18T02:52:09.491Z,102384.19
2023-04-18T02:52:39.912Z,102385.52
2023-04-18T02:53:10.357Z,102386.02
2023-04-18T02:53:40.778Z,102386.20
2023-04-18T02:54:11.295Z,102384.19
2023-04-18T02:54:41.753Z,102382.16
2023-04-18T02:55:12.181Z,102385.70
2023-04-18T02:55:42.596Z,102384.36
2023-04-18T02:56:13.033Z,102385.70
2023-04-18T02:56:43.460Z,102387.03
2023-04-18T02:57:13.889Z,102385.21
2023-04-18T02:57:44.342Z,102386.21
2023-04-18T02:58:14.741Z,102383.49
2023-04-18T02:58:45.162Z,102385.37
2023-04-18T02:59:15.589Z,102383.34
2023-04-18T02:59:46.024Z,102384.34
2023-04-18T03:00:16.444Z,102382.98
2023-04-18T03:00:46.863Z,102384.36
2023-04-18T03:01:17.320Z,102382.31
2023-04-18T03:01:47.803Z,102383.33
2023-04-18T03:02:18.215Z,102386.20
2023-04-18T03:02:48.694Z,102386.38
2023-04-18T03:03:19.170Z,102385.39
2023-04-18T03:03:49.585Z,102386.05
2023-04-18T03:04:20.044Z,102388.06
2023-04-18T03:04:50.500Z,102382.84
2023-04-18T03:05:20.889Z,102384.05
2023-04-18T03:05:51.316Z,102386.73
2023-04-18T03:06:21.733Z,102390.09
2023-04-18T03:06:52.159Z,102382.34
2023-04-18T03:07:22.583Z,102383.88
2023-04-18T03:07:53.012Z,102383.86
2023-04-18T03:08:23.428Z,102388.08
2023-04-18T03:08:53.850Z,102384.52
2023-04-18T03:09:24.268Z,102387.89
2023-04-18T03:09:54.699Z,102384.55
2023-04-18T03:10:25.130Z,102386.22
2023-04-18T03:10:56.403Z,102389.41
2023-04-18T03:11:26.846Z,102387.24
2023-04-18T03:11:57.287Z,102388.41
2023-04-18T03:12:27.720Z,102389.25
2023-04-18T03:12:58.157Z,102390.78
2023-04-18T03:13:28.567Z,102393.98
2023-04-18T03:13:58.982Z,102394.66
2023-04-18T03:14:29.402Z,102392.80
2023-04-18T03:14:59.826Z,102394.66
2023-04-18T03:15:30.367Z,102391.61
2023-04-18T03:16:00.815Z,102390.78
2023-04-18T03:16:31.229Z,102397.72
2023-04-18T03:17:01.655Z,102400.23
2023-04-18T03:17:32.116Z,102400.58
2023-04-18T03:18:02.522Z,102402.28
2023-04-18T03:18:32.944Z,102403.95
2023-04-18T03:19:03.386Z,102402.77
2023-04-18T03:19:33.811Z,102401.91
2023-04-18T03:20:04.225Z,102401.77
2023-04-18T03:20:34.650Z,102399.23
2023-04-18T03:21:05.062Z,102396.88
2023-04-18T03:21:35.489Z,102399.71
2023-04-18T03:22:05.954Z,102398.38
2023-04-18T03:22:36.354Z,102400.22
2023-04-18T03:23:06.779Z,102399.55
2023-04-18T03:23:37.200Z,102397.53
2023-04-18T03:24:07.628Z,102398.53
2023-04-18T03:24:38.048Z,102398.69
2023-04-18T03:25:08.468Z,102391.97
2023-04-18T03:25:38.889Z,102391.64
2023-04-18T03:26:09.311Z,102395.36
2023-04-18T03:26:39.739Z,102393.33
2023-04-18T03:27:10.174Z,102398.22
2023-04-18T03:27:40.596Z,102395.50
2023-04-18T03:28:11.165Z,102394.52
2023-04-18T03:28:41.550Z,102395.70
2023-04-18T03:29:11.954Z,102397.03
2023-04-18T03:29:42.374Z,102396.67
2023-04-18T03:30:12.806Z,102396.19
2023-04-18T03:30:43.216Z,102395.02
2023-04-18T03:31:13.669Z,102398.84
2023-04-18T03:31:44.081Z,102401.21
2023-04-18T03:32:14.497Z,102399.36
2023-04-18T03:32:44.929Z,102397.70
2023-04-18T03:33:15.344Z,102398.55
2023-04-18T03:33:45.772Z,102397.37
2023-04-18T03:34:16.184Z,102399.21
2023-04-18T03:34:46.605Z,102397.52
2023-04-18T03:35:17.026Z,102394.83
2023-04-18T03:35:47.491Z,102401.41
2023-04-18T03:36:17.915Z,102399.20
2023-04-18T03:36:48.418Z,102394.34
2023-04-18T03:37:18.786Z,102399.41
2023-04-18T03:37:49.206Z,102398.91
2023-04-18T03:38:19.629Z,102398.73
2023-04-18T03:38:50.051Z,102399.25
2023-04-18T03:39:20.485Z,102397.72
2023-04-18T03:39:50.913Z,102397.38
2023-04-18T03:40:21.327Z,102397.52
2023-04-18T03:40:51.760Z,102398.56
2023-04-18T03:41:22.175Z,102396.50
2023-04-18T03:41:52.612Z,102395.52
2023-04-18T03:42:23.033Z,102398.36
2023-04-18T03:42:53.462Z,102394.98
2023-04-18T03:43:23.901Z,102398.34
2023-04-18T03:43:54.335Z,102399.05
2023-04-18T03:44:24.760Z,102401.58
2023-04-18T03:44:55.187Z,102397.02
2023-04-18T03:45:25.616Z,102394.48
2023-04-18T03:45:56.092Z,102396.19
2023-04-18T03:46:26.549Z,102393.98
2023-04-18T03:46:56.952Z,102391.30
2023-04-18T03:47:27.425Z,102395.82
2023-04-18T03:47:57.848Z,102399.38
2023-04-18T03:48:28.241Z,102395.34
2023-04-18T03:48:58.655Z,102397.52
2023-04-18T03:49:29.087Z,102399.53
2023-04-18T03:49:59.505Z,102399.41
2023-04-18T03:50:29.938Z,102398.06
2023-04-18T03:51:00.364Z,102397.89
2023-04-18T03:51:30.778Z,102398.91
2023-04-18T03:52:01.228Z,102399.05
2023-04-18T03:52:31.648Z,102400.09
2023-04-18T03:53:02.088Z,102397.55
2023-04-18T03:53:32.503Z,102397.72
2023-04-18T03:54:02.929Z,102401.25
2023-04-18T03:54:33.357Z,102401.41
2023-04-18T03:55:03.776Z,102398.91
2023-04-18T03:55:34.208Z,102398.55
2023-04-18T03:56:04.631Z,102398.39
2023-04-18T03:56:35.055Z,102399.41
2023-04-18T03:57:05.484Z,102400.43
2023-04-18T03:57:35.928Z,102398.58
2023-04-18T03:58:06.355Z,102403.11
2023-04-18T03:58:36.791Z,102399.23
2023-04-18T03:59:07.190Z,102400.58
2023-04-18T03:59:37.614Z,102402.27
2023-04-18T04:00:08.045Z,102405.30
2023-04-18T04:00:38.462Z,102403.28
2023-04-18T04:01:08.874Z,102403.09
2023-04-18T04:01:39.469Z,102405.12
2023-04-18T04:02:09.972Z,102406.47
2023-04-18T04:02:40.565Z,102400.23
2023-04-18T04:03:11.375Z,102403.25
2023-04-18T04:03:42.056Z,102406.96
2023-04-18T04:04:12.839Z,102409.86
2023-04-18T04:04:43.547Z,102409.84
2023-04-18T04:05:13.922Z,102404.11
2023-04-18T04:05:44.350Z,102407.62
2023-04-18T04:06:14.769Z,102406.28
2023-04-18T04:06:45.191Z,102405.30
2023-04-18T04:07:15.613Z,102404.78
2023-04-18T04:07:46.045Z,102406.15
2023-04-18T04:08:16.485Z,102406.66
2023-04-18T04:08:46.894Z,102407.47
2023-04-18T04:09:17.317Z,102405.46
2023-04-18T04:09:47.737Z,102405.81
2023-04-18T04:10:18.187Z,102408.49
2023-04-18T04:10:48.586Z,102405.96
2023-04-18T04:11:19.010Z,102406.66
2023-04-18T04:11:49.435Z,102406.81
2023-04-18T04:12:19.850Z,102407.32
2023-04-18T04:12:50.293Z,102408.51
2023-04-18T04:13:20.719Z,102409.69
2023-04-18T04:13:51.176Z,102408.49
2023-04-18T04:14:21.574Z,102407.31
2023-04-18T04:14:51.982Z,102409.84
2023-04-18T04:15:22.410Z,102406.31
2023-04-18T04:15:52.845Z,102410.19
2023-04-18T04:16:23.276Z,102406.65
2023-04-18T04:16:53.740Z,102408.84
2023-04-18T04:17:24.152Z,102409.68
2023-04-18T04:17:54.612Z,102407.31
2023-04-18T04:18:25.048Z,102408.68
2023-04-18T04:18:55.483Z,102410.02
2023-04-18T04:19:25.892Z,102410.53
2023-04-18T04:19:56.332Z,102412.88
2023-04-18T04:20:26.763Z,102411.68
2023-04-18T04:20:57.164Z,102413.73
2023-04-18T04:21:27.583Z,102413.72
2023-04-18T04:21:58.008Z,102417.95
2023-04-18T04:22:28.429Z,102421.30
2023-04-18T04:22:58.882Z,102421.32
2023-04-18T04:23:29.291Z,102416.76
2023-04-18T04:23:59.713Z,102416.42
2023-04-18T04:24:30.151Z,102417.61
2023-04-18T04:25:00.588Z,102420.97
2023-04-18T04:25:31.006Z,102420.14
2023-04-18T04:26:01.427Z,102419.61
2023-04-18T04:26:31.849Z,102422.00
2023-04-18T04:27:02.271Z,102419.80
2023-04-18T04:27:32.695Z,102418.95
2023-04-18T04:28:03.139Z,102420.80
2023-04-18T04:28:33.559Z,102423.16
2023-04-18T04:29:04.077Z,102420.80
2023-04-18T04:29:34.449Z,102423.16
2023-04-18T04:30:04.862Z,102422.98
2023-04-18T04:30:35.291Z,102419.30
2023-04-18T04:31:05.718Z,102421.66
2023-04-18T04:31:36.174Z,102423.00
2023-04-18T04:32:06.751Z,102421.82
2023-04-18T04:32:37.255Z,102419.97
2023-04-18T04:33:07.839Z,102422.65
2023-04-18T04:33:38.255Z,102424.02
2023-04-18T04:34:08.681Z,102423.34
2023-04-18T04:34:39.099Z,102425.02
2023-04-18T04:35:09.527Z,102421.00
2023-04-18T04:35:39.956Z,102425.54
2023-04-18T04:36:10.366Z,102422.16
2023-04-18T04:36:40.785Z,102426.70
2023-04-18T04:37:11.206Z,102424.52
2023-04-18T04:37:41.628Z,102423.36
2023-04-18T04:38:12.061Z,102424.35
2023-04-18T04:38:42.486Z,102424.52
2023-04-18T04:39:12.903Z,102426.22
2023-04-18T04:39:43.331Z,102425.17
2023-04-18T04:40:13.764Z,102422.33
2023-04-18T04:40:44.174Z,102427.05
2023-04-18T04:41:14.593Z,102427.20
2023-04-18T04:41:45.017Z,102425.88
2023-04-18T04:42:15.437Z,102425.36
2023-04-18T04:42:45.879Z,102428.91
2023-04-18T04:43:16.313Z,102424.84
2023-04-18T04:43:46.728Z,102425.19
2023-04-18T04:44:17.248Z,102426.00
2023-04-18T04:44:47.640Z,102428.72
2023-04-18T04:45:18.064Z,102425.84
2023-04-18T04:45:48.533Z,102430.06
2023-04-18T04:46:18.929Z,102428.53
2023-04-18T04:46:49.332Z,102428.20
2023-04-18T04:47:19.751Z,102427.34
2023-04-18T04:47:50.180Z,102429.56
2023-04-18T04:48:20.614Z,102426.84
2023-04-18T04:48:51.038Z,102442.00
2023-04-18T04:49:21.462Z,102445.39
2023-04-18T04:49:51.886Z,102443.69
2023-04-18T04:50:22.309Z,102446.41
2023-04-18T04:50:52.743Z,102444.20
2023-04-18T04:51:23.163Z,102446.23
2023-04-18T04:51:53.587Z,102449.09
2023-04-18T04:52:24.007Z,102445.72
2023-04-18T04:52:54.427Z,102446.05
2023-04-18T04:53:24.873Z,102446.22
2023-04-18T04:53:55.289Z,102444.70
2023-04-18T04:54:25.709Z,102446.88
2023-04-18T04:54:56.142Z,102445.20
2023-04-18T04:55:26.558Z,102446.71
2023-04-18T04:55:56.982Z,102446.21
2023-04-18T04:56:27.407Z,102435.42
2023-04-18T04:56:57.828Z,102438.44
2023-04-18T04:57:28.248Z,102436.59
2023-04-18T04:57:58.679Z,102437.77
2023-04-18T04:58:29.116Z,102438.62
2023-04-18T04:58:59.540Z,102436.09
2023-04-18T04:59:29.983Z,102435.08
2023-04-18T05:00:00.385Z,102435.26
2023-04-18T05:00:30.808Z,102434.08
2023-04-18T05:01:01.238Z,102438.47
2023-04-18T05:01:31.671Z,102438.78
2023-04-18T05:02:02.275Z,102435.42
2023-04-18T05:02:32.844Z,102436.77
2023-04-18T05:03:03.478Z,102436.11
2023-04-18T05:03:34.492Z,102436.59
2023-04-18T05:04:05.125Z,102434.73
2023-04-18T05:04:35.654Z,102436.94
2023-04-18T05:05:06.120Z,102431.89
2023-04-18T05:05:36.545Z,102432.55
2023-04-18T05:06:06.963Z,102432.54
2023-04-18T05:06:39.592Z,102434.05
2023-04-18T05:07:10.571Z,102433.38
2023-04-18T05:07:40.991Z,102439.27
2023-04-18T05:08:11.415Z,102433.89
2023-04-18T05:08:41.856Z,102435.25
2023-04-18T05:09:12.283Z,102438.28
2023-04-18T05:09:42.705Z,102442.69
2023-04-18T05:10:13.140Z,102433.91
2023-04-18T05:10:43.592Z,102440.16
2023-04-18T05:11:13.996Z,102440.14
2023-04-18T05:11:44.420Z,102440.31
2023-04-18T05:12:14.853Z,102440.31
2023-04-18T05:12:45.275Z,102443.01
2023-04-18T05:13:15.702Z,102442.52
2023-04-18T05:13:46.156Z,102441.33
2023-04-18T05:14:16.723Z,102444.02
2023-04-18T05:14:47.142Z,102443.30
2023-04-18T05:15:17.544Z,102445.34
2023-04-18T05:15:47.969Z,102443.66
2023-04-18T05:16:18.401Z,102441.80
2023-04-18T05:16:48.893Z,102442.96
2023-04-18T05:17:19.331Z,102445.66
2023-04-18T05:17:49.785Z,102444.17
2023-04-18T05:18:20.186Z,102441.80
2023-04-18T05:18:50.621Z,102444.52
2023-04-18T05:19:21.052Z,102442.97
2023-04-18T05:19:51.470Z,102443.14
2023-04-18T05:20:21.891Z,102441.63
2023-04-18T05:20:52.324Z,102441.44
2023-04-18T05:21:22.795Z,102441.48
2023-04-18T05:21:53.178Z,102439.45
2023-04-18T05:22:23.591Z,102441.47
2023-04-18T05:22:54.016Z,102444.52
2023-04-18T05:23:24.438Z,102442.45
2023-04-18T05:23:54.894Z,102443.98
2023-04-18T05:24:25.315Z,102440.45
2023-04-18T05:24:55.724Z,102443.98
2023-04-18T05:25:26.147Z,102444.00
2023-04-18T05:25:56.567Z,102441.45
2023-04-18T05:26:26.996Z,102447.17
2023-04-18T05:26:57.418Z,102444.30
2023-04-18T05:27:27.850Z,102443.64
2023-04-18T05:27:58.270Z,102443.30
2023-04-18T05:28:28.699Z,102442.29
2023-04-18T05:28:59.145Z,102443.64
2023-04-18T05:29:29.571Z,102445.17
2023-04-18T05:30:00.038Z,102445.68
2023-04-18T05:30:30.418Z,102443.31
2023-04-18T05:31:00.848Z,102442.80
2023-04-18T05:31:31.277Z,102444.34
2023-04-18T05:32:01.706Z,102441.66
2023-04-18T05:32:32.147Z,102442.29
2023-04-18T05:33:02.574Z,102443.31
2023-04-18T05:33:32.984Z,102440.61
2023-04-18T05:34:03.420Z,102442.30
2023-04-18T05:34:33.861Z,102441.77
2023-04-18T05:35:04.270Z,102435.02
2023-04-18T05:35:34.696Z,102440.42
2023-04-18T05:36:05.139Z,102440.56
2023-04-18T05:36:35.533Z,102440.42
2023-04-18T05:37:05.957Z,102441.60
2023-04-18T05:37:36.403Z,102441.59
2023-04-18T05:38:06.808Z,102442.77
2023-04-18T05:38:37.227Z,102442.77
2023-04-18T05:39:07.666Z,102443.10
2023-04-18T05:39:38.094Z,102446.47
2023-04-18T05:40:08.519Z,102446.14
2023-04-18T05:40:38.966Z,102445.30
2023-04-18T05:41:09.399Z,102447.48
2023-04-18T05:41:39.818Z,102448.00
2023-04-18T05:42:10.274Z,102448.50
2023-04-18T05:42:40.698Z,102444.28
2023-04-18T05:43:11.119Z,102445.78
2023-04-18T05:43:42.972Z,102448.16
2023-04-18T05:44:14.817Z,102445.77
2023-04-18T05:44:45.243Z,102448.67
2023-04-18T05:45:15.688Z,102450.02
2023-04-18T05:45:46.080Z,102447.80
2023-04-18T05:46:16.526Z,102450.84
2023-04-18T05:46:46.956Z,102446.62
2023-04-18T05:47:17.351Z,102448.47